• Join FlightAware (Why Join?)
  • Login
  • US Flag 
03:53AM EDT


 

Airport Tracker/Info


-or-


 

Live Flight TrackerFlight Track Log ✈ BER6706 ✈ 23-Apr-2013 ✈ EDDN / NUE - EDDH / HAM

Flight Track Log - Related Links

Times and Time Zones

All times are in EDT time to prevent confusion due to time zone crossing. See the BER6706 flight status page for this flight to view local times or setup timezone preferences in your user account.

Time Position Orientation Groundspeed Altitude Reporting Facility
EDT Latitude Longitude Course Direction KTS MPH feet Rate Location/Type
01:57AM 50.5723 10.8137 351° North  Level Estimated
01:58AM 50.6490 10.7943 351° North  Level Estimated
01:59AM 50.7256 10.7749 351° North  Level Estimated
02:00AM 50.8023 10.7555 351° North  Level Estimated
02:01AM 50.8789 10.7359 351° North  Level Estimated
02:02AM 50.9556 10.7163 351° North  Level Estimated
02:03AM 51.0322 10.6967 351° North  Level Estimated
02:04AM 51.1089 10.6769 351° North  Level Estimated
02:05AM 51.1855 10.6571 351° North  Level Estimated
02:06AM 51.2622 10.6373 351° North  Level Estimated
02:07AM 51.3388 10.6173 351° North  Level Estimated
02:08AM 51.4155 10.5973 351° North  Level Estimated
02:09AM 51.4921 10.5773 351° North  Level Estimated
02:10AM 51.5687 10.5571 351° North  Level Estimated
02:11AM 51.6453 10.5370 351° North  Level Estimated
02:12AM 51.7220 10.5167 351° North  Level Estimated
02:13AM 51.7986 10.4964 351° North  Level Estimated
02:14AM 51.8752 10.4760 351° North  Level Estimated
02:15AM 51.9518 10.4555 351° North  Level Estimated
02:16AM 52.0284 10.4349 351° North  Level Estimated
02:17AM 52.1050 10.4143 351° North  Level Estimated
02:18AM 52.1816 10.3936 351° North  Level Estimated
02:19AM 52.2582 10.3729 351° North  Level Estimated
02:20AM 52.3348 10.3520 351° North  Level Estimated
02:21AM 52.4114 10.3312 351° North  Level Estimated
02:22AM 52.4879 10.3102 351° North  Level Estimated
02:23AM 52.5645 10.2891 351° North  Level Estimated
02:24AM 52.6411 10.2680 350° North  Level Estimated
02:25AM 52.7177 10.2468 350° North  Level Estimated
02:26AM 52.7943 10.2255 350° North  Level Estimated
02:27AM 52.8708 10.2042 350° North  Level Estimated
02:28AM 52.9474 10.1828 350° North  Level Estimated
02:29AM 53.0239 10.1613 350° North  Level Estimated
02:30AM 53.1005 10.1397 350° North  Level Estimated
02:31AM 53.1770 10.1181 350° North  Level Estimated
02:32AM 53.2536 10.0963 350° North  Level Estimated
02:33AM 53.3301 10.0745 350° North  Level Estimated
02:34AM 53.4067 10.0527 350° North  Level Estimated
02:35AM 53.4832 10.0307 350° North  Level Estimated
02:36AM 53.5597 10.0087 350° North  Level Estimated
02:37AM 53.6304 9.9882 350° North  Level Estimated
02:38AM 53.6304 9.9882 230° Southwest  Level Estimated
02:39AM 53.6304 9.9882 230° Southwest  Level Estimated
02:40AM 53.6304 9.9882 230° Southwest  Level Estimated
02:41AM 53.6304 9.9882 230° Southwest  Level Estimated
02:42AM 53.6304 9.9882 230° Southwest  Level Estimated
02:43AM 53.6304 9.9882 230° Southwest  Level Estimated
02:44AM 53.6304 9.9882 230° Southwest  Level Estimated
02:45AM 53.6304 9.9882 230° Southwest  Level Estimated
02:46AM 53.6304 9.9882 230° Southwest  Level Estimated
02:47AM 53.6304 9.9882 230° Southwest  Level Estimated
02:48AM 53.6304 9.9882 230° Southwest  Level Estimated
02:49AM 53.6304 9.9882 230° Southwest  Level Estimated
02:50AM 53.6304 9.9882 230° Southwest  Level Estimated
02:51AM 53.6304 9.9882 230° Southwest  Level Estimated
02:52AM 53.6304 9.9882 230° Southwest  Level Estimated
02:53AM 53.6304 9.9882 230° Southwest  Level Estimated